createdAt,value
2019-04-05T00:01:24.426Z,5.50
2019-04-05T00:06:23.786Z,5.48
2019-04-05T00:11:23.805Z,5.47
2019-04-05T00:21:22.759Z,5.48
2019-04-05T00:26:21.965Z,5.43
2019-04-05T00:31:20.766Z,5.40
2019-04-05T00:36:21.848Z,5.40
2019-04-05T00:41:21.813Z,5.42
2019-04-05T00:46:21.792Z,5.38
2019-04-05T00:51:20.791Z,5.35
2019-04-05T00:56:20.843Z,5.37
2019-04-05T01:01:20.812Z,5.35
2019-04-05T01:06:19.855Z,5.33
2019-04-05T01:11:19.781Z,5.33
2019-04-05T01:16:18.832Z,5.32
2019-04-05T01:21:18.813Z,5.32
2019-04-05T01:26:18.836Z,5.30
2019-04-05T01:36:16.847Z,5.30
2019-04-05T01:41:16.807Z,5.29
2019-04-05T01:46:17.842Z,5.27
2019-04-05T01:56:17.893Z,5.25
2019-04-05T02:01:16.884Z,5.23
2019-04-05T02:06:16.793Z,5.23
2019-04-05T02:11:16.816Z,5.24
2019-04-05T02:16:16.087Z,5.20
2019-04-05T02:21:15.878Z,5.20
2019-04-05T02:26:16.981Z,5.21
2019-04-05T02:31:16.278Z,5.25
2019-04-05T02:36:15.873Z,5.22
2019-04-05T02:41:15.884Z,5.18
2019-04-05T02:46:23.386Z,5.18
2019-04-05T02:51:15.869Z,5.18
2019-04-05T02:56:14.881Z,5.16
2019-04-05T03:01:14.813Z,5.15
2019-04-05T03:06:14.838Z,5.14
2019-04-05T03:11:14.868Z,5.11
2019-04-05T03:16:14.990Z,5.10
2019-04-05T03:21:15.074Z,5.09
2019-04-05T03:26:14.895Z,5.08
2019-04-05T03:31:13.844Z,5.06
2019-04-05T03:36:14.147Z,5.08
2019-04-05T03:41:13.840Z,5.08
2019-04-05T03:46:13.916Z,5.09
2019-04-05T03:51:13.856Z,5.11
2019-04-05T03:56:13.852Z,5.12
2019-04-05T04:01:13.869Z,5.13
2019-04-05T04:06:14.964Z,5.11
2019-04-05T04:11:15.057Z,5.12
2019-04-05T04:16:13.850Z,5.13
2019-04-05T04:21:13.948Z,5.13
2019-04-05T04:26:13.879Z,5.12
2019-04-05T04:31:13.913Z,5.13
2019-04-05T04:36:13.305Z,5.15
2019-04-05T04:41:11.967Z,5.13
2019-04-05T04:46:11.870Z,5.13
2019-04-05T04:51:11.909Z,5.18
2019-04-05T04:56:12.125Z,5.20
2019-04-05T05:01:10.882Z,5.21
2019-04-05T05:11:14.872Z,5.24
2019-04-05T05:16:10.978Z,5.25
2019-04-05T05:21:10.889Z,5.26
2019-04-05T05:26:10.286Z,5.29
2019-04-05T05:31:10.952Z,5.37
2019-04-05T05:36:11.097Z,5.41
2019-04-05T05:41:10.900Z,5.46
2019-04-05T05:46:10.923Z,5.49
2019-04-05T05:51:09.890Z,5.54
2019-04-05T05:56:08.909Z,5.52
2019-04-05T06:01:07.917Z,5.54
2019-04-05T06:06:07.215Z,5.60
2019-04-05T06:11:06.202Z,5.64
2019-04-05T06:16:06.105Z,5.68
2019-04-05T06:21:04.950Z,5.70
2019-04-05T06:26:04.123Z,5.77
2019-04-05T06:31:03.927Z,5.83
2019-04-05T06:36:05.175Z,5.85
2019-04-05T06:41:05.175Z,5.90
2019-04-05T06:46:04.184Z,5.93
2019-04-05T06:51:03.994Z,6.00
2019-04-05T06:56:03.348Z,6.06
2019-04-05T07:01:02.990Z,6.14
2019-04-05T07:06:02.905Z,6.24
2019-04-05T07:11:02.143Z,6.37
2019-04-05T07:16:01.898Z,6.51
2019-04-05T07:21:01.022Z,6.64
2019-04-05T07:26:00.063Z,6.76
2019-04-05T07:30:59.227Z,6.84
2019-04-05T07:35:57.960Z,6.97
2019-04-05T07:40:57.959Z,7.13
2019-04-05T07:45:57.134Z,7.25
2019-04-05T07:50:56.140Z,7.32
2019-04-05T07:55:55.935Z,7.37
2019-04-05T08:00:57.099Z,7.39
2019-04-05T08:05:57.242Z,7.42
2019-04-05T08:10:57.075Z,7.57
2019-04-05T08:15:56.509Z,7.68
2019-04-05T08:20:56.977Z,7.71
2019-04-05T08:25:57.240Z,7.70
2019-04-05T08:30:56.060Z,7.63
2019-04-05T08:35:56.028Z,7.60
2019-04-05T08:40:55.368Z,7.57
2019-04-05T08:45:54.509Z,7.53
2019-04-05T08:50:53.383Z,7.50
2019-04-05T09:00:52.212Z,7.64
2019-04-05T09:05:51.376Z,7.92
2019-04-05T09:10:49.995Z,8.10
2019-04-05T09:15:49.136Z,8.13
2019-04-05T09:20:49.055Z,8.30
2019-04-05T09:25:49.006Z,8.49
2019-04-05T09:30:51.768Z,8.52
2019-04-05T09:35:50.110Z,8.61
2019-04-05T09:40:49.314Z,8.64
2019-04-05T09:45:49.036Z,8.72
2019-04-05T09:50:49.049Z,8.77
2019-04-05T09:55:49.131Z,8.78
2019-04-05T10:00:49.062Z,8.79
2019-04-05T10:05:49.348Z,8.86
2019-04-05T10:10:49.373Z,8.98
2019-04-05T10:15:48.030Z,8.88
2019-04-05T10:20:48.130Z,8.82
2019-04-05T10:25:49.032Z,8.70
2019-04-05T10:30:48.417Z,8.75
2019-04-05T10:35:48.462Z,8.80
2019-04-05T10:40:47.256Z,8.89
2019-04-05T10:45:47.032Z,8.79
2019-04-05T10:50:46.002Z,8.62
2019-04-05T10:55:46.066Z,8.58
2019-04-05T11:00:45.161Z,8.82
2019-04-05T11:05:48.962Z,8.99
2019-04-05T11:10:45.436Z,9.06
2019-04-05T11:15:45.125Z,9.14
2019-04-05T11:20:45.090Z,9.23
2019-04-05T11:25:44.525Z,9.29
2019-04-05T11:30:43.406Z,9.22
2019-04-05T11:35:44.235Z,9.12
2019-04-05T11:40:41.510Z,8.96
2019-04-05T11:45:41.074Z,8.86
2019-04-05T11:50:40.425Z,8.77
2019-04-05T11:55:40.026Z,8.66
2019-04-05T12:00:40.116Z,8.63
2019-04-05T12:05:39.175Z,8.55
2019-04-05T12:10:38.112Z,8.63
2019-04-05T12:15:39.018Z,8.76
2019-04-05T12:20:48.329Z,8.78
2019-04-05T12:25:38.058Z,8.75
2019-04-05T12:30:38.051Z,8.70
2019-04-05T12:35:39.006Z,8.68
2019-04-05T12:40:40.763Z,8.62
2019-04-05T12:45:38.220Z,8.59
2019-04-05T12:50:38.055Z,8.62
2019-04-05T12:55:37.262Z,8.71
2019-04-05T13:00:38.826Z,8.71
2019-04-05T13:05:35.339Z,8.67
2019-04-05T13:10:34.374Z,8.60
2019-04-05T13:15:35.034Z,8.60
2019-04-05T13:20:34.381Z,8.55
2019-04-05T13:25:33.087Z,8.49
2019-04-05T13:30:33.203Z,8.46
2019-04-05T13:35:32.192Z,8.42
2019-04-05T13:40:33.290Z,8.39
2019-04-05T13:45:33.190Z,8.37
2019-04-05T13:50:32.112Z,8.35
2019-04-05T13:55:33.268Z,8.32
2019-04-05T14:00:32.333Z,8.27
2019-04-05T14:05:32.073Z,8.28
2019-04-05T14:10:33.148Z,8.25
2019-04-05T14:15:32.083Z,8.22
2019-04-05T14:20:31.320Z,8.17
2019-04-05T14:25:31.031Z,8.12
2019-04-05T14:30:32.971Z,8.08
2019-04-05T14:35:31.105Z,8.08
2019-04-05T14:40:32.951Z,8.06
2019-04-05T14:45:29.299Z,8.06
2019-04-05T14:50:28.849Z,8.03
2019-04-05T14:55:29.809Z,8.01
2019-04-05T15:00:29.040Z,7.96
2019-04-05T15:05:28.117Z,7.95
2019-04-05T15:10:29.063Z,7.95
2019-04-05T15:15:29.089Z,7.95
2019-04-05T15:20:28.312Z,7.96
2019-04-05T15:25:28.092Z,7.94
2019-04-05T15:30:27.441Z,7.93
2019-04-05T15:35:28.704Z,7.93
2019-04-05T15:40:28.742Z,7.93
2019-04-05T15:45:26.068Z,7.90
2019-04-05T15:50:26.124Z,7.88
2019-04-05T15:55:26.045Z,7.85
2019-04-05T16:00:26.066Z,7.83
2019-04-05T16:05:25.054Z,7.80
2019-04-05T16:10:24.171Z,7.77
2019-04-05T16:15:23.499Z,7.73
2019-04-05T16:20:23.233Z,7.71
2019-04-05T16:25:23.082Z,7.71
2019-04-05T16:30:22.158Z,7.69
2019-04-05T16:35:22.086Z,7.68
2019-04-05T16:40:22.126Z,7.66
2019-04-05T16:45:21.132Z,7.65
2019-04-05T16:50:22.115Z,7.62
2019-04-05T16:55:21.272Z,7.58
2019-04-05T17:00:22.102Z,7.55
2019-04-05T17:05:22.121Z,7.55
2019-04-05T17:10:21.531Z,7.55
2019-04-05T17:15:20.224Z,7.52
2019-04-05T17:25:18.436Z,7.48
2019-04-05T17:30:19.150Z,7.44
2019-04-05T17:35:19.944Z,7.42
2019-04-05T17:40:18.512Z,7.38
2019-04-05T17:50:17.166Z,7.32
2019-04-05T17:55:17.138Z,7.31
2019-04-05T18:00:17.307Z,7.30
2019-04-05T18:05:18.111Z,7.31
2019-04-05T18:10:18.215Z,7.27
2019-04-05T18:15:18.174Z,7.27
2019-04-05T18:20:19.135Z,7.26
2019-04-05T18:25:20.138Z,7.26
2019-04-05T18:30:20.171Z,7.25
2019-04-05T18:35:20.458Z,7.25
2019-04-05T18:45:19.090Z,7.28
2019-04-05T18:50:19.092Z,7.26
2019-04-05T18:55:19.123Z,7.24
2019-04-05T19:00:18.281Z,7.24
2019-04-05T19:05:18.191Z,7.24
2019-04-05T19:10:18.105Z,7.22
2019-04-05T19:15:17.092Z,7.23
2019-04-05T19:20:17.135Z,7.24
2019-04-05T19:25:17.146Z,7.26
2019-04-05T19:50:15.209Z,7.29
2019-04-05T19:55:15.121Z,7.28
2019-04-05T20:00:14.131Z,7.26
2019-04-05T20:05:14.105Z,7.28
2019-04-05T20:10:13.184Z,7.28
2019-04-05T20:15:12.135Z,7.30
2019-04-05T20:20:12.755Z,7.31
2019-04-05T20:25:12.427Z,7.33
2019-04-05T20:30:12.207Z,7.32
2019-04-05T20:35:12.192Z,7.34
2019-04-05T20:40:13.398Z,7.33
2019-04-05T20:45:13.119Z,7.32
2019-04-05T20:50:12.433Z,7.33
2019-04-05T20:55:12.121Z,7.32
2019-04-05T21:00:12.280Z,7.32
2019-04-05T21:05:13.186Z,7.31
2019-04-05T21:10:13.324Z,7.30
2019-04-05T21:15:13.102Z,7.32
2019-04-05T21:20:13.294Z,7.32
2019-04-05T21:25:14.156Z,7.31
2019-04-05T21:30:13.177Z,7.30
2019-04-05T21:35:13.162Z,7.31
2019-04-05T21:40:12.477Z,7.30
2019-04-05T21:45:13.182Z,7.32
2019-04-05T21:50:13.101Z,7.30
2019-04-05T21:55:12.193Z,7.30
2019-04-05T22:00:12.265Z,7.29
2019-04-05T22:05:11.405Z,7.28
2019-04-05T22:10:11.123Z,7.28
2019-04-05T22:15:10.417Z,7.28
2019-04-05T22:25:10.499Z,7.27
2019-04-05T22:30:11.192Z,7.27
2019-04-05T22:35:11.119Z,7.28
2019-04-05T22:40:10.808Z,7.29
2019-04-05T22:45:10.147Z,7.30
2019-04-05T22:50:09.338Z,7.29
2019-04-05T22:55:11.380Z,7.30
2019-04-05T23:00:09.142Z,7.32
2019-04-05T23:05:09.166Z,7.32
2019-04-05T23:10:09.214Z,7.32
2019-04-05T23:15:08.147Z,7.33
2019-04-05T23:20:08.181Z,7.34
2019-04-05T23:25:08.195Z,7.34
2019-04-05T23:30:08.120Z,7.35
2019-04-05T23:35:08.194Z,7.36
2019-04-05T23:40:07.185Z,7.37
2019-04-05T23:45:07.332Z,7.39
2019-04-05T23:50:08.134Z,7.41
2019-04-05T23:55:08.195Z,7.42
